NCAR-RAP Real-Time Weather Data

Output produced by METARs form (17 December 2018  08:10 UTC)
found at http://weather.rap.ucar.edu/surface/
 
Conditions at: KTPA observed 17 December 2018  07:53 UTC
Temperature: 13.3°C (56°F)
Dewpoint: 10.6°C (51°F) [RH = 84%]
Pressure (altimeter): 30.15 inches Hg (1021.1 mb)
[Sea-level pressure: 1021.0 mb]
Winds: from the N (10 degrees) at 10 MPH (9 knots; 4.7 m/s)
Visibility: 10 or more miles (16+ km)
Ceiling: 2800 feet AGL
Clouds: broken clouds at 2800 feet AGL
Present Weather: no significant weather observed at this time
KTPA 170753Z 01009KT 10SM BKN028 13/11 A3015 RMK AO2 SLP210 T01330106

Conditions at: KTPA observed 17 December 2018  07:13 UTC
Temperature: 13.9°C (57°F)
Dewpoint: 11.7°C (53°F) [RH = 87%]
Pressure (altimeter): 30.14 inches Hg (1020.7 mb)
Winds: from the N (360 degrees) at 8 MPH (7 knots; 3.6 m/s)
Visibility: 10 or more miles (16+ km)
Ceiling: 2800 feet AGL
Clouds: broken clouds at 2800 feet AGL
Present Weather: no significant weather observed at this time
KTPA 170713Z 36007KT 10SM BKN028 14/12 A3014 RMK AO2 T01390117

Conditions at: KTPA observed 17 December 2018  06:53 UTC
Temperature: 13.9°C (57°F)
Dewpoint: 11.7°C (53°F) [RH = 87%]
Pressure (altimeter): 30.14 inches Hg (1020.7 mb)
[Sea-level pressure: 1020.6 mb]
Winds: from the NNW (330 degrees) at 5 MPH (4 knots; 2.1 m/s)
Visibility: 10 or more miles (16+ km)
Ceiling: at least 12,000 feet AGL
Clouds: scattered clouds at 2600 feet AGL
Present Weather: no significant weather observed at this time
KTPA 170653Z 33004KT 10SM SCT026 14/12 A3014 RMK AO2 SLP206 T01390117

Conditions at: KTPA observed 17 December 2018  05:53 UTC
Temperature: 13.9°C (57°F)
Dewpoint: 11.7°C (53°F) [RH = 87%]
Pressure (altimeter): 30.14 inches Hg (1020.7 mb)
[Sea-level pressure: 1020.7 mb]
Winds: calm
Visibility: 10 or more miles (16+ km)
Ceiling: at least 12,000 feet AGL
Clouds: few clouds at 2800 feet AGL
Present Weather: no significant weather observed at this time
KTPA 170553Z 00000KT 10SM FEW028 14/12 A3014 RMK AO2 SLP207 T01390117 10167 20139 58008

Conditions at: KTPA observed 17 December 2018  04:53 UTC
Temperature: 15.0°C (59°F)
Dewpoint: 11.7°C (53°F) [RH = 81%]
Pressure (altimeter): 30.16 inches Hg (1021.4 mb)
[Sea-level pressure: 1021.2 mb]
Winds: from the NNW (330 degrees) at 5 MPH (4 knots; 2.1 m/s)
Visibility: 10 or more miles (16+ km)
Ceiling: 2400 feet AGL
Clouds: broken clouds at 2400 feet AGL
overcast cloud deck at 3000 feet AGL
Present Weather: no significant weather observed at this time
KTPA 170453Z 33004KT 10SM BKN024 OVC030 15/12 A3016 RMK AO2 SLP212 T01500117 402170150

Conditions at: KTPA observed 17 December 2018  03:53 UTC
Temperature: 16.1°C (61°F)
Dewpoint: 11.7°C (53°F) [RH = 75%]
Pressure (altimeter): 30.17 inches Hg (1021.8 mb)
[Sea-level pressure: 1021.6 mb]
Winds: from the NW (310 degrees) at 5 MPH (4 knots; 2.1 m/s)
Visibility: 10 or more miles (16+ km)
Ceiling: 2800 feet AGL
Clouds: broken clouds at 2800 feet AGL
Present Weather: no significant weather observed at this time
KTPA 170353Z 31004KT 10SM BKN028 16/12 A3017 RMK AO2 SLP216 T01610117

Conditions at: KTPA observed 17 December 2018  02:53 UTC
Temperature: 16.1°C (61°F)
Dewpoint: 11.7°C (53°F) [RH = 75%]
Pressure (altimeter): 30.17 inches Hg (1021.8 mb)
[Sea-level pressure: 1021.5 mb]
Winds: from the NW (320 degrees) at 5 MPH (4 knots; 2.1 m/s)
Visibility: 10 or more miles (16+ km)
Ceiling: 2700 feet AGL
Clouds: overcast cloud deck at 2700 feet AGL
Present Weather: no significant weather observed at this time
KTPA 170253Z 32004KT 10SM OVC027 16/12 A3017 RMK AO2 SLP215 T01610117 51007

Conditions at: KTPA observed 17 December 2018  01:53 UTC
Temperature: 16.1°C (61°F)
Dewpoint: 11.7°C (53°F) [RH = 75%]
Pressure (altimeter): 30.16 inches Hg (1021.4 mb)
[Sea-level pressure: 1021.3 mb]
Winds: from the NW (320 degrees) at 3 MPH (3 knots; 1.6 m/s)
Visibility: 10 or more miles (16+ km)
Ceiling: 2900 feet AGL
Clouds: broken clouds at 2900 feet AGL
Present Weather: no significant weather observed at this time
KTPA 170153Z 32003KT 10SM BKN029 16/12 A3016 RMK AO2 SLP213 T01610117

Conditions at: KTPA observed 17 December 2018  00:53 UTC
Temperature: 16.1°C (61°F)
Dewpoint: 11.1°C (52°F) [RH = 72%]
Pressure (altimeter): 30.16 inches Hg (1021.4 mb)
[Sea-level pressure: 1021.1 mb]
Winds: from the NNW (340 degrees) at 6 MPH (5 knots; 2.6 m/s)
Visibility: 10 or more miles (16+ km)
Ceiling: 2900 feet AGL
Clouds: broken clouds at 2900 feet AGL
Present Weather: no significant weather observed at this time
KTPA 170053Z 34005KT 10SM BKN029 16/11 A3016 RMK AO2 SLP211 T01610111

Conditions at: KTPA observed 16 December 2018  23:53 UTC
Temperature: 16.1°C (61°F)
Dewpoint: 11.1°C (52°F) [RH = 72%]
Pressure (altimeter): 30.15 inches Hg (1021.1 mb)
[Sea-level pressure: 1020.8 mb]
Winds: from the NNW (340 degrees) at 10 MPH (9 knots; 4.7 m/s)
Visibility: 10 or more miles (16+ km)
Ceiling: 2800 feet AGL
Clouds: broken clouds at 2800 feet AGL
Present Weather: no significant weather observed at this time
KTPA 162353Z 34009KT 10SM BKN028 16/11 A3015 RMK AO2 SLP208 T01610111 10217 20161 51016

Conditions at: KTPA observed 16 December 2018  23:49 UTC
Temperature: 17.0°C (63°F)
Dewpoint: 11.0°C (52°F) [RH = 68%]
Pressure (altimeter): 30.14 inches Hg (1020.7 mb)
Winds: from the N (350 degrees) at 8 MPH (7 knots; 3.6 m/s)
Visibility: 10 or more miles (16+ km)
Ceiling: 2800 feet AGL
Clouds: overcast cloud deck at 2800 feet AGL
Present Weather: no significant weather observed at this time
KTPA 162349Z 35007KT 10SM OVC028 17/11 A3014 RMK AO2

Conditions at: KTPA observed 16 December 2018  22:53 UTC
Temperature: 17.2°C (63°F)
Dewpoint: 10.6°C (51°F) [RH = 65%]
Pressure (altimeter): 30.13 inches Hg (1020.4 mb)
[Sea-level pressure: 1020.3 mb]
Winds: from the NNW (330 degrees) at 10 MPH (9 knots; 4.7 m/s)
gusting to 18 MPH (16 knots; 8.3 m/s)
Visibility: 10 or more miles (16+ km)
Ceiling: 3800 feet AGL
Clouds: broken clouds at 3800 feet AGL
Present Weather: no significant weather observed at this time
KTPA 162253Z 33009G16KT 10SM BKN038 17/11 A3013 RMK AO2 SLP203 T01720106

Conditions at: KTPA observed 16 December 2018  21:53 UTC
Temperature: 18.9°C (66°F)
Dewpoint: 12.2°C (54°F) [RH = 65%]
Pressure (altimeter): 30.12 inches Hg (1020.1 mb)
[Sea-level pressure: 1019.8 mb]
Winds: from the NW (310 degrees) at 13 MPH (11 knots; 5.7 m/s)
Visibility: 10 or more miles (16+ km)
Ceiling: at least 12,000 feet AGL
Clouds: few clouds at 3000 feet AGL
few clouds at 5000 feet AGL
Present Weather: no significant weather observed at this time
KTPA 162153Z 31011KT 10SM FEW030 FEW050 19/12 A3012 RMK AO2 SLP198 T01890122

Conditions at: KTPA observed 16 December 2018  20:53 UTC
Temperature: 21.1°C (70°F)
Dewpoint: 12.8°C (55°F) [RH = 59%]
Pressure (altimeter): 30.10 inches Hg (1019.4 mb)
[Sea-level pressure: 1019.1 mb]
Winds: from the NNW (330 degrees) at 12 MPH (10 knots; 5.2 m/s)
Visibility: 10 or more miles (16+ km)
Ceiling: at least 12,000 feet AGL
Clouds: few clouds at 3000 feet AGL
few clouds at 5000 feet AGL
Present Weather: no significant weather observed at this time
KTPA 162053Z 33010KT 10SM FEW030 FEW050 21/13 A3010 RMK AO2 SLP191 T02110128 55004

Conditions at: KTPA observed 16 December 2018  19:53 UTC
Temperature: 21.1°C (70°F)
Dewpoint: 13.9°C (57°F) [RH = 63%]
Pressure (altimeter): 30.08 inches Hg (1018.7 mb)
[Sea-level pressure: 1018.6 mb]
Winds: from the WNW (290 degrees) at 7 MPH (6 knots; 3.1 m/s)
Visibility: 10 or more miles (16+ km)
Ceiling: at least 12,000 feet AGL
Clouds: scattered clouds at 2800 feet AGL
Present Weather: no significant weather observed at this time
KTPA 161953Z 29006KT 10SM SCT028 21/14 A3008 RMK AO2 SLP186 T02110139

Conditions at: KTPA observed 16 December 2018  19:35 UTC
Temperature: 20.6°C (69°F)
Dewpoint: 13.9°C (57°F) [RH = 65%]
Pressure (altimeter): 30.08 inches Hg (1018.7 mb)
Winds: from the NW (310 degrees) at 6 MPH (5 knots; 2.6 m/s)
Visibility: 10 or more miles (16+ km)
Ceiling: at least 12,000 feet AGL
Clouds: few clouds at 2800 feet AGL
Present Weather: no significant weather observed at this time
KTPA 161935Z 31005KT 10SM FEW028 21/14 A3008 RMK AO2 T02060139

Conditions at: KTPA observed 16 December 2018  18:53 UTC
Temperature: 20.6°C (69°F)
Dewpoint: 14.4°C (58°F) [RH = 68%]
Pressure (altimeter): 30.09 inches Hg (1019.0 mb)
[Sea-level pressure: 1018.9 mb]
Winds: from the NNW (330 degrees) at 9 MPH (8 knots; 4.2 m/s)
Visibility: 10 or more miles (16+ km)
Ceiling: 2600 feet AGL
Clouds: few clouds at 1700 feet AGL
broken clouds at 2600 feet AGL
broken clouds at 6500 feet AGL
Present Weather: no significant weather observed at this time
KTPA 161853Z 33008KT 10SM FEW017 BKN026 BKN065 21/14 A3009 RMK AO2 SLP189 T02060144

Conditions at: KTPA observed 16 December 2018  17:53 UTC
Temperature: 20.0°C (68°F)
Dewpoint: 15.0°C (59°F) [RH = 73%]
Pressure (altimeter): 30.11 inches Hg (1019.7 mb)
[Sea-level pressure: 1019.5 mb]
Winds: from the N (350 degrees) at 9 MPH (8 knots; 4.2 m/s)
Visibility: 10 or more miles (16+ km)
Ceiling: 2700 feet AGL
Clouds: scattered clouds at 1900 feet AGL
broken clouds at 2700 feet AGL
broken clouds at 6500 feet AGL
Present Weather: no significant weather observed at this time
KTPA 161753Z 35008KT 10SM SCT019 BKN027 BKN065 20/15 A3011 RMK AO2 SLP195 T02000150 10211 20161 58022

Conditions at: KTPA observed 16 December 2018  17:43 UTC
Temperature: 20.0°C (68°F)
Dewpoint: 15.0°C (59°F) [RH = 73%]
Pressure (altimeter): 30.12 inches Hg (1020.1 mb)
Winds: from the NNW (340 degrees) at 8 MPH (7 knots; 3.6 m/s)
Visibility: 10 or more miles (16+ km)
Ceiling: 2700 feet AGL
Clouds: scattered clouds at 1900 feet AGL
broken clouds at 2700 feet AGL
broken clouds at 6500 feet AGL
Present Weather: no significant weather observed at this time
KTPA 161743Z 34007KT 10SM SCT019 BKN027 BKN065 20/15 A3012 RMK AO2 T02000150

Conditions at: KTPA observed 16 December 2018  16:53 UTC
Temperature: 19.4°C (67°F)
Dewpoint: 15.6°C (60°F) [RH = 79%]
Pressure (altimeter): 30.14 inches Hg (1020.7 mb)
[Sea-level pressure: 1020.6 mb]
Winds: from the N (10 degrees) at 7 MPH (6 knots; 3.1 m/s)
Visibility: 10 or more miles (16+ km)
Ceiling: 3500 feet AGL
Clouds: scattered clouds at 1500 feet AGL
broken clouds at 3500 feet AGL
broken clouds at 8000 feet AGL
Present Weather: no significant weather observed at this time
KTPA 161653Z 01006KT 10SM SCT015 BKN035 BKN080 19/16 A3014 RMK AO2 SLP206 T01940156

Conditions at: KTPA observed 16 December 2018  16:45 UTC
Temperature: 19.4°C (67°F)
Dewpoint: 15.6°C (60°F) [RH = 79%]
Pressure (altimeter): 30.15 inches Hg (1021.1 mb)
Winds: from the N (360 degrees) at 9 MPH (8 knots; 4.2 m/s)
Visibility: 10 or more miles (16+ km)
Ceiling: 3500 feet AGL
Clouds: scattered clouds at 1600 feet AGL
broken clouds at 3500 feet AGL
overcast cloud deck at 5000 feet AGL
Present Weather: no significant weather observed at this time
KTPA 161645Z 36008KT 10SM SCT016 BKN035 OVC050 19/16 A3015 RMK AO2 T01940156

Conditions at: KTPA observed 16 December 2018  15:53 UTC
Temperature: 18.9°C (66°F)
Dewpoint: 15.0°C (59°F) [RH = 78%]
Pressure (altimeter): 30.17 inches Hg (1021.8 mb)
[Sea-level pressure: 1021.4 mb]
Winds: from the N (360 degrees) at 7 MPH (6 knots; 3.1 m/s)
Visibility: 10 or more miles (16+ km)
Ceiling: 1500 feet AGL
Clouds: few clouds at 1200 feet AGL
broken clouds at 1500 feet AGL
broken clouds at 6500 feet AGL
Present Weather: no significant weather observed at this time
KTPA 161553Z 36006KT 10SM FEW012 BKN015 BKN065 19/15 A3017 RMK AO2 SLP214 T01890150

Conditions at: KTPA observed 16 December 2018  15:35 UTC
Temperature: 19.4°C (67°F)
Dewpoint: 15.6°C (60°F) [RH = 79%]
Pressure (altimeter): 30.17 inches Hg (1021.8 mb)
Winds: from the N (10 degrees) at 7 MPH (6 knots; 3.1 m/s)
Visibility: 10 or more miles (16+ km)
Ceiling: 1500 feet AGL
Clouds: few clouds at 1200 feet AGL
broken clouds at 1500 feet AGL
broken clouds at 6500 feet AGL
Present Weather: no significant weather observed at this time
KTPA 161535Z 01006KT 10SM FEW012 BKN015 BKN065 19/16 A3017 RMK AO2 T01940156

Conditions at: KTPA observed 16 December 2018  14:53 UTC
Temperature: 18.9°C (66°F)
Dewpoint: 16.1°C (61°F) [RH = 84%]
Pressure (altimeter): 30.17 inches Hg (1021.8 mb)
[Sea-level pressure: 1021.7 mb]
Winds: from the N (360 degrees) at 5 MPH (4 knots; 2.1 m/s)
Visibility: 10 or more miles (16+ km)
Ceiling: 25000 feet AGL
Clouds: few clouds at 600 feet AGL
scattered clouds at 2800 feet AGL
scattered clouds at 6500 feet AGL
broken clouds at 25000 feet AGL
Present Weather: no significant weather observed at this time
KTPA 161453Z 36004KT 10SM FEW006 SCT028 SCT065 BKN250 19/16 A3017 RMK AO2 SLP217 T01890161 51018

Conditions at: KTPA observed 16 December 2018  14:07 UTC
Temperature: 18.3°C (65°F)
Dewpoint: 16.7°C (62°F) [RH = 90%]
Pressure (altimeter): 30.16 inches Hg (1021.4 mb)
Winds: from the N (350 degrees) at 5 MPH (4 knots; 2.1 m/s)
Visibility: 9 miles (14 km)
Ceiling: 2800 feet AGL
Clouds: few clouds at 600 feet AGL
broken clouds at 2800 feet AGL
overcast cloud deck at 6500 feet AGL
Present Weather: no significant weather observed at this time
KTPA 161407Z 35004KT 9SM FEW006 BKN028 OVC065 18/17 A3016 RMK AO2 T01830167

Conditions at: KTPA observed 16 December 2018  13:53 UTC
Temperature: 17.8°C (64°F)
Dewpoint: 16.7°C (62°F) [RH = 93%]
Pressure (altimeter): 30.16 inches Hg (1021.4 mb)
[Sea-level pressure: 1021.1 mb]
Winds: calm
Visibility: 9 miles (14 km)
Ceiling: 6500 feet AGL
Clouds: few clouds at 2600 feet AGL
broken clouds at 6500 feet AGL
Present Weather: no significant weather observed at this time
KTPA 161353Z 00000KT 9SM FEW026 BKN065 18/17 A3016 RMK AO2 SLP211 T01780167

Conditions at: KTPA observed 16 December 2018  12:53 UTC
Temperature: 16.7°C (62°F)
Dewpoint: 16.1°C (61°F) [RH = 96%]
Pressure (altimeter): 30.14 inches Hg (1020.7 mb)
[Sea-level pressure: 1020.7 mb]
Winds: calm
Visibility: 10 or more miles (16+ km)
Ceiling: 6000 feet AGL
Clouds: few clouds at 2800 feet AGL
broken clouds at 6000 feet AGL
Present Weather: no significant weather observed at this time
KTPA 161253Z 00000KT 10SM FEW028 BKN060 17/16 A3014 RMK AO2 SLP207 T01670161

Conditions at: KTPA observed 16 December 2018  11:53 UTC
Temperature: 16.7°C (62°F)
Dewpoint: 16.1°C (61°F) [RH = 96%]
Pressure (altimeter): 30.12 inches Hg (1020.1 mb)
[Sea-level pressure: 1019.9 mb]
Winds: calm
Visibility: 8 miles (13 km)
Ceiling: 7000 feet AGL
Clouds: few clouds at 2500 feet AGL
broken clouds at 7000 feet AGL
Present Weather: no significant weather observed at this time
KTPA 161153Z 00000KT 8SM FEW025 BKN070 17/16 A3012 RMK AO2 SLP199 70015 T01670161 10167 20150 53012

Conditions at: KTPA observed 16 December 2018  10:53 UTC
Temperature: 15.6°C (60°F)
Dewpoint: 15.0°C (59°F) [RH = 96%]
Pressure (altimeter): 30.10 inches Hg (1019.4 mb)
[Sea-level pressure: 1019.4 mb]
Winds: calm
Visibility: 10 or more miles (16+ km)
Ceiling: 6500 feet AGL
Clouds: broken clouds at 6500 feet AGL
Present Weather: no significant weather observed at this time
KTPA 161053Z 00000KT 10SM BKN065 16/15 A3010 RMK AO2 SLP194 T01560150

Conditions at: KTPA observed 16 December 2018  09:53 UTC
Temperature: 15.6°C (60°F)
Dewpoint: 15.0°C (59°F) [RH = 96%]
Pressure (altimeter): 30.09 inches Hg (1019.0 mb)
[Sea-level pressure: 1019.0 mb]
Winds: calm
Visibility: 8 miles (13 km)
Ceiling: at least 12,000 feet AGL
Clouds: few clouds at 2500 feet AGL
few clouds at 6500 feet AGL
Present Weather: no significant weather observed at this time
KTPA 160953Z 00000KT 8SM FEW025 FEW065 16/15 A3009 RMK AO2 SLP190 T01560150

Conditions at: KTPA observed 16 December 2018  08:53 UTC
Temperature: 15.6°C (60°F)
Dewpoint: 15.0°C (59°F) [RH = 96%]
Pressure (altimeter): 30.09 inches Hg (1019.0 mb)
[Sea-level pressure: 1018.7 mb]
Winds: calm
Visibility: 8 miles (13 km)
Ceiling: 6500 feet AGL
Clouds: broken clouds at 6500 feet AGL
Present Weather: no significant weather observed at this time
KTPA 160853Z 00000KT 8SM BKN065 16/15 A3009 RMK AO2 SLP187 T01560150 55003